Denmark, Maine
Current Conditions -  °F | °C
As of 7:24 AM on Friday 31 Oct 2014 (Local Time) from KIZG Reporting Station
Overcast Overcast  
Wind Chill: 32°   Ceiling: 5500
Heat Index: 32°   Visibility: 10mi
Dew Point: 31°   Wind: 0mph
Humidity: 96%   Direction: NA
Pressure: 30.05"   Gusts: NA
Location:  43.97°N, 70.8°W
Report Text: KIZG 311124Z AUTO 00000KT 10SM SCT003 OVC055 00/M01 A3005 RMK AO2 T00001006 $
Loading
Personal Weather Stations






























Interactive Weather Map
Tropical Storm Tracking
New forecast layout! Learn more

10-Day Weather Forecast

Advertisements
Track Severe Weather on mobile